Portada
METAR-TAF:

METAR-TAF

Aeroports :

Uberlândia, Minas Gerais, Brasil

latitud: 18-53S, longitud: 048-14W, altitud: 943 m

Observació

L'informe es va fer fa 1 hora i 43 minuts, a les 17:00 UTC
Vent 5 kt del Nord/Nord-Est
Temperatura 29°C
Humitat 45%
Pressió 1016 hPa
Visibilitat 10 km o més
Núvols disperses a una alçada de 4800 ft

METAR: SBUL 211700Z 03005KT 9999 SCT048 29/16 Q1016

Hora: 16:43 (18:43 UTC)

Pronòstic

L'informe es va fer fa 2 hores i 41 minuts, a les 16:02 UTC
Pronòstic vàlid del 21 a les 18 UTC al 22 a les 06 UTC
Vent 10 kt del Est/Nord-Est
Visibilitat 10 km o més
Probabilitat 30%
l' 21 a les 18 UTC al 21 a les 23 UTC
Escasses núvols a una alçada de 4200 ft
Escasses núvols a una alçada de 4600 ft, Cumulonimbus.
tempesta, pluja

TAF: SBUL 211602Z 2118/2206 06010KT 9999 FEW038TX28/2118Z TN19/2205Z PROB30 2118/2123 TSRA FEW042 FEW046CB RMK PGM

Observacions i pronòstics meteorològics de més de 4000 aeroports (METAR i TAF).

Les estacions disponibles són els punts grocs i vermells al mapa.

Posi el ratolí al punt desitjat per veure el nom de l'estació.

Feu clic per veure les observacions i els pronòstics meteorològics.

Per canviar el mapa: feu clic els botons verds amb una creu de color negre per apropar; al botó verd amb un guió per allunyar la imatge; o en les fletxes verdes per a mapes adjacents.


METAR-TAF: